Time;durP1;ratioP1;P1;durP2;ratioP2;P2;SDS_P1;SDS_P2;PMS_P1;PMS_P2;Temp;Humidity;BMP_temperature;BMP_pressure;BME280_temperature;BME280_humidity;BME280_pressure;Samples;Min_cycle;Max_cycle;Signal;HPM_P1;HPM_P2
2022/05/24 04:01:45;;;;;;;11.83;2.40;;;16.00;96.30;;;;;;5346419;23;21081;-77
2022/05/24 04:04:11;;;;;;;1.80;1.50;;;16.40;96.30;;;;;;4938534;29;20431;-80
2022/05/24 04:06:43;;;;;;;3.43;1.50;;;16.40;96.30;;;;;;4939279;29;20214;-79
2022/05/24 04:09:13;;;;;;;3.03;1.37;;;16.60;96.30;;;;;;4956058;29;20530;-79
2022/05/24 04:11:42;;;;;;;3.70;1.77;;;16.80;96.30;;;;;;4944741;29;20435;-80
2022/05/24 04:14:07;;;;;;;7.90;3.93;;;16.80;96.30;;;;;;4939166;29;20494;-76
2022/05/24 04:16:33;;;;;;;4.90;1.70;;;17.30;96.30;;;;;;4937093;29;20473;-76
2022/05/24 04:18:58;;;;;;;7.67;5.93;;;18.40;96.30;;;;;;4919809;29;20203;-75
2022/05/24 04:26:34;;;;;;;1.30;0.90;;;20.50;96.30;;;;;;5040435;23;20909;-78
2022/05/24 04:29:00;;;;;;;3.43;1.87;;;20.00;96.30;;;;;;4972078;28;20500;-77
2022/05/24 04:31:25;;;;;;;4.50;1.23;;;19.70;96.30;;;;;;4975035;28;20213;-80
2022/05/24 04:33:51;;;;;;;2.97;2.00;;;19.10;96.30;;;;;;4974513;28;20174;-80
2022/05/24 04:36:16;;;;;;;5.63;1.30;;;18.50;96.30;;;;;;4956471;28;20183;-78
2022/05/24 04:38:42;;;;;;;2.73;1.57;;;18.10;96.30;;;;;;4964319;28;20235;-79
2022/05/24 04:43:52;;;;;;;2.93;1.23;;;17.50;96.30;;;;;;4974805;28;20177;-79
2022/05/24 04:46:18;;;;;;;5.40;1.40;;;17.40;96.30;;;;;;4974666;28;20402;-78
2022/05/24 04:48:43;;;;;;;3.00;2.50;;;17.20;96.30;;;;;;4974515;28;20176;-78
2022/05/24 04:51:09;;;;;;;20.07;14.50;;;17.50;96.30;;;;;;4974225;28;20248;-77
2022/05/24 04:53:35;;;;;;;5.00;2.93;;;17.70;96.30;;;;;;4962468;28;20187;-77
2022/05/24 04:56:00;;;;;;;3.53;1.47;;;18.40;96.30;;;;;;4944367;29;20464;-79
2022/05/24 04:58:26;;;;;;;19.77;13.90;;;19.10;96.30;;;;;;4934314;29;20207;-80
2022/05/24 05:00:51;;;;;;;17.27;11.50;;;19.40;96.30;;;;;;4935988;29;20668;-78
2022/05/24 05:03:19;;;;;;;6.77;4.23;;;20.00;96.30;;;;;;4936113;29;20587;-79
2022/05/24 05:05:47;;;;;;;3.00;1.20;;;20.20;96.30;;;;;;4944601;28;20186;-79
2022/05/24 05:08:14;;;;;;;2.20;1.00;;;20.50;96.30;;;;;;4965052;28;20447;-79
2022/05/24 05:10:40;;;;;;;3.00;1.00;;;21.20;96.30;;;;;;4963452;28;20487;-79
2022/05/24 05:13:06;;;;;;;2.80;1.43;;;21.60;96.30;;;;;;4968839;28;20402;-78
2022/05/24 05:15:34;;;;;;;3.50;1.27;;;22.60;96.30;;;;;;4987098;28;20421;-76
2022/05/24 05:18:07;;;;;;;1.30;1.10;;;23.50;95.00;;;;;;4980917;28;20457;-75
2022/05/24 05:20:38;;;;;;;2.50;1.50;;;23.00;95.30;;;;;;4978700;28;20429;-77
2022/05/24 05:23:05;;;;;;;1.60;1.10;;;22.60;95.80;;;;;;4956935;28;20410;-77
2022/05/24 05:25:31;;;;;;;2.43;1.77;;;22.20;96.30;;;;;;4958618;28;20430;-78
2022/05/24 05:27:56;;;;;;;2.80;1.20;;;22.40;96.30;;;;;;4959866;29;20411;-77
2022/05/24 05:33:05;;;;;;;4.83;1.30;;;22.60;96.30;;;;;;4958609;29;20264;-79
2022/05/24 05:35:31;;;;;;;2.50;1.20;;;23.00;95.10;;;;;;4957624;29;20442;-79
2022/05/24 05:37:56;;;;;;;1.60;1.00;;;23.30;93.70;;;;;;4956804;29;20685;-77
2022/05/24 05:40:22;;;;;;;3.20;1.00;;;23.40;92.50;;;;;;4955572;29;20301;-78
2022/05/24 05:42:47;;;;;;;4.40;1.13;;;22.60;93.80;;;;;;4956120;29;20198;-79
2022/05/24 05:45:15;;;;;;;2.40;1.17;;;22.80;96.00;;;;;;4956921;29;20582;-78
2022/05/24 05:47:40;;;;;;;2.70;1.03;;;23.40;94.10;;;;;;4956802;28;20653;-78
2022/05/24 05:50:07;;;;;;;2.20;1.10;;;24.40;90.80;;;;;;4956610;28;20414;-78
2022/05/24 05:52:32;;;;;;;4.20;0.90;;;25.60;87.00;;;;;;4956705;28;20198;-79
2022/05/24 05:54:58;;;;;;;4.50;0.97;;;25.60;86.50;;;;;;4957841;29;20463;-79
2022/05/24 05:57:23;;;;;;;1.93;0.97;;;25.90;84.60;;;;;;4957433;29;20638;-77
2022/05/24 05:59:49;;;;;;;1.87;1.07;;;26.40;85.40;;;;;;4956472;29;20210;-80
2022/05/24 06:02:14;;;;;;;3.33;1.03;;;26.40;84.40;;;;;;4957833;29;20198;-80
2022/05/24 06:04:40;;;;;;;2.27;1.07;;;27.20;83.20;;;;;;4958280;29;20584;-79
2022/05/24 06:07:06;;;;;;;1.53;1.10;;;27.00;82.70;;;;;;4956865;29;20178;-79
2022/05/24 06:09:32;;;;;;;2.60;1.23;;;26.70;82.10;;;;;;4957785;29;20182;-80
2022/05/24 06:11:57;;;;;;;3.43;1.20;;;27.30;80.70;;;;;;4956894;29;20895;-80
2022/05/24 06:14:23;;;;;;;2.53;1.30;;;27.80;81.90;;;;;;4958080;29;20410;-79
2022/05/24 06:16:48;;;;;;;1.90;1.23;;;28.30;78.20;;;;;;4956581;29;20183;-80
2022/05/24 06:19:14;;;;;;;3.57;1.20;;;27.90;80.90;;;;;;4957718;29;20265;-79
2022/05/24 06:21:39;;;;;;;1.80;1.07;;;28.00;77.20;;;;;;4957891;29;20190;-79
2022/05/24 06:24:06;;;;;;;7.17;1.53;;;27.60;82.20;;;;;;4958247;29;20183;-80
2022/05/24 06:26:33;;;;;;;2.73;1.13;;;28.90;80.00;;;;;;4956724;29;20201;-81
2022/05/24 06:28:59;;;;;;;1.95;1.27;;;30.00;77.70;;;;;;4956446;29;20496;-79
2022/05/24 06:31:25;;;;;;;6.07;1.40;;;28.10;79.10;;;;;;4955832;29;20305;-79
2022/05/24 06:33:51;;;;;;;5.00;1.40;;;28.10;79.10;;;;;;4957607;29;20177;-78
2022/05/24 06:36:16;;;;;;;2.70;1.17;;;28.00;78.00;;;;;;4956205;29;20185;-77
2022/05/24 06:38:42;;;;;;;4.13;1.30;;;27.90;81.80;;;;;;4956803;29;20674;-78
2022/05/24 06:41:07;;;;;;;1.40;1.10;;;27.00;84.10;;;;;;4955994;29;20716;-78
2022/05/24 06:43:34;;;;;;;3.93;2.03;;;25.90;85.60;;;;;;4957381;29;20186;-79
2022/05/24 06:46:00;;;;;;;4.73;1.60;;;24.80;87.10;;;;;;4956917;29;20178;-78
2022/05/24 06:48:26;;;;;;;2.20;1.27;;;23.40;91.60;;;;;;4956259;29;20505;-77
2022/05/24 06:50:51;;;;;;;8.87;1.50;;;22.60;95.60;;;;;;4956237;29;20469;-77
2022/05/24 06:53:17;;;;;;;3.10;1.37;;;23.10;96.30;;;;;;4956884;29;20178;-77
2022/05/24 06:55:43;;;;;;;2.50;1.40;;;24.40;93.10;;;;;;4955665;29;20186;-78
2022/05/24 06:58:09;;;;;;;2.17;1.03;;;24.80;89.20;;;;;;4956165;29;20422;-77
2022/05/24 07:03:18;;;;;;;8.13;1.60;;;25.70;91.30;;;;;;4958373;28;20181;-78
2022/05/24 07:05:44;;;;;;;2.43;1.37;;;26.80;87.10;;;;;;4960712;29;20410;-78
2022/05/24 07:08:10;;;;;;;5.90;1.53;;;26.70;86.40;;;;;;4958649;29;20178;-78
2022/05/24 07:10:38;;;;;;;3.30;1.17;;;27.00;84.20;;;;;;4960286;29;20237;-78
2022/05/24 07:13:09;;;;;;;4.10;1.60;;;25.70;86.70;;;;;;4960566;29;20738;-77
2022/05/24 07:15:36;;;;;;;2.33;1.40;;;24.60;88.40;;;;;;4959977;29;20414;-77
2022/05/24 07:18:02;;;;;;;4.40;1.30;;;23.80;91.80;;;;;;4959610;28;20409;-78
2022/05/24 07:20:28;;;;;;;8.10;2.07;;;23.10;93.00;;;;;;4959881;28;20493;-77
2022/05/24 07:22:55;;;;;;;6.17;1.53;;;22.30;96.00;;;;;;4959103;28;20441;-77
2022/05/24 07:25:22;;;;;;;6.00;1.50;;;21.00;96.30;;;;;;4959114;28;20422;-77
2022/05/24 07:27:47;;;;;;;2.67;1.53;;;20.50;96.30;;;;;;4958844;28;20414;-77
2022/05/24 07:30:13;;;;;;;2.53;1.20;;;20.20;96.30;;;;;;4958772;29;20421;-77
2022/05/24 07:32:39;;;;;;;3.73;1.47;;;20.00;96.30;;;;;;4958868;29;20187;-77
2022/05/24 07:35:05;;;;;;;4.10;2.20;;;19.70;96.30;;;;;;4958230;29;20226;-77
2022/05/24 07:37:31;;;;;;;5.13;1.33;;;19.50;96.30;;;;;;4957797;29;20179;-76
2022/05/24 07:48:09;;;;;;;5.03;1.60;;;19.30;96.30;;;;;;4957891;29;20554;-76
2022/05/24 07:50:35;;;;;;;2.23;1.30;;;19.70;96.30;;;;;;4956656;29;20970;-77
2022/05/24 07:53:00;;;;;;;3.00;1.33;;;19.90;96.30;;;;;;4957894;29;20205;-77
2022/05/24 07:55:26;;;;;;;6.37;1.37;;;19.90;96.30;;;;;;4957860;29;20894;-77
2022/05/24 07:57:52;;;;;;;5.23;1.33;;;19.90;96.30;;;;;;4957715;28;20175;-77
2022/05/24 08:00:18;;;;;;;2.23;1.70;;;20.10;96.30;;;;;;4957352;29;20234;-77
2022/05/24 08:02:43;;;;;;;3.20;1.73;;;20.70;96.30;;;;;;4957983;29;20198;-77
2022/05/24 08:05:10;;;;;;;6.27;2.07;;;21.90;96.30;;;;;;4956980;29;20766;-77
2022/05/24 08:07:36;;;;;;;5.73;1.60;;;23.20;96.30;;;;;;4958461;29;20171;-77
2022/05/24 08:10:03;;;;;;;2.67;1.73;;;23.80;96.30;;;;;;4958813;28;20433;-77
2022/05/24 08:12:29;;;;;;;3.73;1.57;;;23.30;95.50;;;;;;4958404;29;21036;-78
2022/05/24 08:14:55;;;;;;;3.87;1.50;;;22.60;96.30;;;;;;4956796;28;20465;-78
2022/05/24 08:17:21;;;;;;;1.93;1.20;;;22.50;96.30;;;;;;4957281;29;20422;-78
2022/05/24 08:19:46;;;;;;;1.10;1.00;;;23.00;96.30;;;;;;4958287;29;20205;-78
2022/05/24 08:22:12;;;;;;;5.47;1.63;;;23.90;96.30;;;;;;4957540;29;20201;-77
2022/05/24 08:24:37;;;;;;;1.43;1.20;;;24.10;92.40;;;;;;4958188;29;20176;-78
2022/05/24 08:27:03;;;;;;;2.50;1.30;;;23.50;96.30;;;;;;4957087;29;20175;-78
2022/05/24 08:29:29;;;;;;;3.60;1.27;;;23.00;96.30;;;;;;4958327;29;20559;-78
2022/05/24 08:31:55;;;;;;;3.27;1.60;;;22.00;96.30;;;;;;4956885;29;20190;-77
2022/05/24 08:34:20;;;;;;;2.87;1.23;;;21.80;96.30;;;;;;4956679;29;20234;-77
2022/05/24 08:36:46;;;;;;;2.07;1.30;;;21.60;96.30;;;;;;4956536;29;20175;-79
2022/05/24 08:39:11;;;;;;;3.73;1.20;;;21.40;96.30;;;;;;4957391;29;20199;-77
2022/05/24 08:42:21;;;;;;;5.17;1.70;;;21.30;96.30;;;;;;4957227;29;20198;-77
2022/05/24 08:50:33;;;;;;;2.33;1.40;;;20.60;96.30;;;;;;4957334;29;20530;-77
2022/05/24 08:53:07;;;;;;;2.73;1.40;;;20.20;96.30;;;;;;4957349;28;20403;-77
2022/05/24 08:55:36;;;;;;;9.33;1.50;;;20.30;96.30;;;;;;4956993;29;20426;-77
2022/05/24 08:58:02;;;;;;;5.53;1.70;;;19.60;96.30;;;;;;4956611;29;20418;-77
2022/05/24 09:00:33;;;;;;;5.30;1.53;;;19.40;96.30;;;;;;4956481;29;20561;-77
2022/05/24 09:02:59;;;;;;;2.50;1.13;;;19.20;96.30;;;;;;4955091;29;20423;-77
2022/05/24 09:05:32;;;;;;;2.30;1.53;;;19.20;96.30;;;;;;4956370;28;20433;-77
2022/05/24 09:08:18;;;;;;;2.10;1.57;;;19.40;96.30;;;;;;4956280;29;20493;-77
2022/05/24 09:11:01;;;;;;;2.20;1.40;;;19.80;96.30;;;;;;4956444;29;20439;-77
2022/05/24 09:14:01;;;;;;;6.93;1.80;;;20.50;96.30;;;;;;4954929;29;20926;-77
2022/05/24 09:16:49;;;;;;;4.47;1.20;;;21.80;96.30;;;;;;4955048;29;20414;-77
2022/05/24 09:19:21;;;;;;;2.10;1.50;;;22.60;96.30;;;;;;4956617;29;20454;-77
2022/05/24 09:21:51;;;;;;;2.53;1.93;;;23.40;96.30;;;;;;4956585;29;20469;-78
2022/05/24 09:24:43;;;;;;;7.17;1.80;;;24.00;96.30;;;;;;4956694;28;20414;-78
2022/05/24 09:27:26;;;;;;;5.33;1.83;;;23.60;94.90;;;;;;4959494;29;20422;-79
2022/05/24 09:30:03;;;;;;;2.43;1.47;;;24.20;94.70;;;;;;4965325;28;20417;-79
2022/05/24 09:32:38;;;;;;;1.77;1.27;;;23.90;94.40;;;;;;4964863;29;20434;-77
2022/05/24 09:35:16;;;;;;;2.00;1.30;;;23.00;96.30;;;;;;4956715;29;20402;-78
2022/05/24 09:37:44;;;;;;;1.57;1.47;;;23.00;96.30;;;;;;4956499;29;20409;-78
2022/05/24 09:40:20;;;;;;;3.30;1.40;;;23.00;96.30;;;;;;4956885;29;20466;-79
2022/05/24 09:42:46;;;;;;;2.97;1.60;;;22.80;96.10;;;;;;4956398;29;20422;-78
2022/05/24 09:45:22;;;;;;;3.63;1.50;;;22.60;96.30;;;;;;4956158;28;20902;-78
2022/05/24 09:47:47;;;;;;;11.73;1.33;;;22.20;96.30;;;;;;4955646;28;20425;-79
2022/05/24 09:50:29;;;;;;;5.53;1.70;;;21.40;96.30;;;;;;4955665;29;20503;-78
2022/05/24 09:53:22;;;;;;;2.70;1.50;;;20.90;96.30;;;;;;4955815;28;20179;-77
2022/05/24 09:56:01;;;;;;;6.33;1.83;;;20.40;96.30;;;;;;4954543;29;20509;-77
2022/05/24 09:58:31;;;;;;;2.20;1.30;;;20.00;96.30;;;;;;4955735;28;20938;-78
2022/05/24 10:01:06;;;;;;;3.63;1.23;;;20.00;96.30;;;;;;4955615;29;20441;-78
2022/05/24 10:03:41;;;;;;;12.93;1.30;;;20.00;96.30;;;;;;4954952;28;20856;-78
2022/05/24 10:06:31;;;;;;;3.43;1.60;;;19.90;96.30;;;;;;4955257;29;20414;-77
2022/05/24 10:09:10;;;;;;;3.67;1.37;;;20.30;96.30;;;;;;4969028;28;21021;-78
2022/05/24 10:11:54;;;;;;;2.73;1.27;;;20.30;96.30;;;;;;4955022;29;20426;-78
2022/05/24 10:14:40;;;;;;;4.10;1.20;;;20.40;96.30;;;;;;4955269;28;20421;-79
2022/05/24 10:17:38;;;;;;;2.10;1.27;;;20.20;96.30;;;;;;4955019;28;20415;-77
2022/05/24 10:20:16;;;;;;;1.60;1.10;;;20.20;96.30;;;;;;4955040;28;20929;-77
2022/05/24 10:23:00;;;;;;;3.27;1.13;;;20.50;96.30;;;;;;4955322;28;20406;-77
2022/05/24 10:25:37;;;;;;;6.20;1.10;;;21.30;96.30;;;;;;4955850;29;20811;-78
2022/05/24 10:28:07;;;;;;;4.10;1.30;;;22.00;96.30;;;;;;4954429;29;20941;-78
2022/05/24 10:31:14;;;;;;;1.23;1.00;;;22.40;96.30;;;;;;4954405;29;20434;-78
2022/05/24 10:40:06;;;;;;;4.77;1.43;;;24.60;89.30;;;;;;4958399;29;20457;-77
2022/05/24 10:52:56;;;;;;;2.63;1.10;;;24.10;85.40;;;;;;4920716;29;20797;-76
2022/05/24 10:55:30;;;;;;;2.17;1.00;;;24.40;86.80;;;;;;4921160;29;20431;-77
2022/05/24 10:58:01;;;;;;;1.87;1.03;;;23.70;86.10;;;;;;4921412;29;20444;-77
2022/05/24 11:00:34;;;;;;;7.80;1.40;;;23.30;86.00;;;;;;4935906;29;20470;-77
2022/05/24 11:03:03;;;;;;;4.63;0.97;;;22.80;87.60;;;;;;4903909;29;20502;-77
2022/05/24 11:05:37;;;;;;;1.87;1.00;;;22.30;87.80;;;;;;4921000;29;20420;-77
2022/05/24 11:08:06;;;;;;;3.47;1.23;;;22.30;88.10;;;;;;4935193;29;20505;-77
2022/05/24 11:10:36;;;;;;;4.73;1.20;;;22.50;91.40;;;;;;4921158;29;21003;-78
2022/05/24 11:13:08;;;;;;;3.20;1.10;;;22.30;89.40;;;;;;4920705;29;20424;-78
2022/05/24 11:15:40;;;;;;;3.10;0.90;;;21.70;91.20;;;;;;4920845;29;20416;-78
2022/05/24 11:18:15;;;;;;;1.53;0.90;;;21.30;90.90;;;;;;4920484;29;20492;-77
2022/05/24 11:20:48;;;;;;;1.37;0.93;;;21.30;93.20;;;;;;4920408;29;20474;-77
2022/05/24 11:23:24;;;;;;;2.40;0.97;;;21.60;91.70;;;;;;4920990;29;20412;-77
2022/05/24 11:26:15;;;;;;;6.17;1.20;;;21.90;89.70;;;;;;4920512;29;20420;-76
2022/05/24 11:28:47;;;;;;;2.63;1.13;;;21.70;92.70;;;;;;4903197;29;20428;-77
2022/05/24 11:31:38;;;;;;;3.27;1.10;;;21.40;92.90;;;;;;4920508;29;20459;-77
2022/05/24 11:34:31;;;;;;;2.90;1.20;;;21.40;94.10;;;;;;4920509;29;20738;-77
2022/05/24 11:37:13;;;;;;;2.00;1.13;;;21.40;95.10;;;;;;4919802;29;20432;-77
2022/05/24 11:39:41;;;;;;;3.30;0.90;;;21.50;95.50;;;;;;4919684;29;20463;-77
2022/05/24 11:42:29;;;;;;;1.87;1.20;;;21.60;95.50;;;;;;4919756;29;20451;-77
2022/05/24 11:44:57;;;;;;;3.43;1.07;;;21.60;94.70;;;;;;4919954;29;20419;-77
2022/05/24 11:47:35;;;;;;;3.10;1.10;;;21.60;94.50;;;;;;4919863;29;21011;-77
2022/05/24 11:50:23;;;;;;;5.10;1.00;;;21.50;95.40;;;;;;4919094;29;20519;-77
2022/05/24 11:53:11;;;;;;;2.80;1.10;;;21.80;95.20;;;;;;4919455;29;20511;-77
2022/05/24 11:55:57;;;;;;;2.50;1.07;;;22.00;93.40;;;;;;4920236;29;20435;-77
2022/05/24 11:58:43;;;;;;;1.80;1.00;;;22.10;93.70;;;;;;4919391;29;20443;-77
2022/05/24 12:01:19;;;;;;;6.13;0.90;;;21.90;94.30;;;;;;4919656;29;20436;-77
2022/05/24 12:10:00;;;;;;;3.60;1.33;;;22.20;91.40;;;;;;4919521;29;20456;-77
2022/05/24 12:12:45;;;;;;;2.27;0.90;;;21.80;93.00;;;;;;4919756;29;21011;-77
2022/05/24 12:15:21;;;;;;;2.63;1.00;;;21.30;95.80;;;;;;4919474;29;20416;-77
2022/05/24 12:18:11;;;;;;;3.43;1.00;;;21.30;96.10;;;;;;4919137;29;20416;-77
2022/05/24 12:20:36;;;;;;;2.20;0.73;;;21.40;93.50;;;;;;4919024;29;20472;-77
2022/05/24 12:23:07;;;;;;;3.43;1.10;;;21.20;93.00;;;;;;4919051;29;20412;-77
2022/05/24 12:25:59;;;;;;;2.63;0.80;;;21.10;91.80;;;;;;4919303;29;20179;-77
2022/05/24 12:28:41;;;;;;;2.57;0.70;;;21.00;90.50;;;;;;4901470;29;20511;-76
2022/05/24 12:31:26;;;;;;;2.10;1.27;;;20.80;92.70;;;;;;4918437;29;20460;-76
2022/05/24 12:34:03;;;;;;;2.17;0.80;;;20.50;93.40;;;;;;4918645;29;20444;-77
2022/05/24 12:36:43;;;;;;;1.93;0.90;;;20.30;94.20;;;;;;4918430;29;20416;-77
2022/05/24 12:39:09;;;;;;;1.63;0.90;;;20.30;93.80;;;;;;4917918;29;20520;-76
2022/05/24 12:41:44;;;;;;;2.60;0.70;;;20.10;92.90;;;;;;4932877;29;20497;-76
2022/05/24 12:44:21;;;;;;;2.20;1.00;;;19.90;94.60;;;;;;4917617;29;20848;-75
2022/05/24 12:47:02;;;;;;;3.27;1.00;;;20.00;94.90;;;;;;4903907;29;20456;-77
2022/05/24 12:49:30;;;;;;;3.17;1.03;;;20.20;95.50;;;;;;4903409;29;21020;-75
2022/05/24 12:52:18;;;;;;;1.73;0.90;;;20.40;94.20;;;;;;4924476;29;20466;-75
2022/05/24 12:54:58;;;;;;;1.93;1.17;;;20.50;94.00;;;;;;4916931;29;20448;-76
2022/05/24 12:57:37;;;;;;;5.43;1.17;;;20.70;96.20;;;;;;4916625;29;20526;-75
2022/05/24 13:00:21;;;;;;;2.43;1.10;;;20.40;95.40;;;;;;4912956;29;20560;-75
2022/05/24 13:02:52;;;;;;;1.47;1.13;;;20.30;96.30;;;;;;4911068;29;20436;-75
2022/05/24 13:05:28;;;;;;;9.67;1.00;;;20.60;96.30;;;;;;4934133;29;20412;-75
2022/05/24 13:07:53;;;;;;;3.67;1.50;;;20.50;96.20;;;;;;4935865;29;20478;-75
2022/05/24 13:10:19;;;;;;;2.13;1.27;;;20.60;96.10;;;;;;4922085;29;20436;-75
2022/05/24 13:12:54;;;;;;;2.20;1.20;;;20.70;95.30;;;;;;4916804;29;20188;-75
2022/05/24 13:15:23;;;;;;;3.30;1.00;;;20.80;96.30;;;;;;4916544;29;20187;-75
2022/05/24 13:17:54;;;;;;;2.63;0.90;;;21.10;93.20;;;;;;4914137;29;20789;-75
2022/05/24 13:20:20;;;;;;;1.90;0.80;;;21.30;94.40;;;;;;4933197;29;20463;-77
2022/05/24 13:22:50;;;;;;;3.53;0.87;;;21.10;93.70;;;;;;4916599;29;20425;-75
2022/05/24 13:25:26;;;;;;;5.17;0.90;;;21.00;95.60;;;;;;4916670;29;20675;-77
2022/05/24 13:28:01;;;;;;;3.97;0.93;;;21.70;92.50;;;;;;4916652;29;20742;-76
2022/05/24 13:33:35;;;;;;;1.30;0.90;;;22.90;91.20;;;;;;4916604;29;20515;-75
2022/05/24 13:36:03;;;;;;;1.40;1.10;;;22.70;87.60;;;;;;4931546;29;20419;-77
2022/05/24 13:38:29;;;;;;;3.73;0.80;;;22.30;88.90;;;;;;4935118;29;20812;-78
2022/05/24 13:40:57;;;;;;;1.87;0.80;;;22.60;91.30;;;;;;4924409;29;21104;-76
2022/05/24 13:43:34;;;;;;;2.30;0.70;;;22.90;89.60;;;;;;4914893;29;20630;-77
2022/05/24 13:46:15;;;;;;;1.50;0.60;;;23.40;87.40;;;;;;4916194;29;20450;-75
2022/05/24 13:48:54;;;;;;;3.47;0.97;;;23.40;89.10;;;;;;4914664;29;20428;-78
2022/05/24 13:51:30;;;;;;;3.23;1.23;;;23.30;89.20;;;;;;4902306;29;20530;-77
2022/05/24 13:53:55;;;;;;;1.23;0.80;;;23.20;89.10;;;;;;4914778;29;20885;-76
2022/05/24 13:56:25;;;;;;;1.37;0.70;;;22.70;89.00;;;;;;4916274;29;20990;-75
2022/05/24 13:59:21;;;;;;;0.90;0.60;;;22.10;90.90;;;;;;4915840;29;20207;-77
2022/05/24 14:01:54;;;;;;;1.50;0.60;;;21.90;89.00;;;;;;4915476;29;20448;-76
2022/05/24 14:04:26;;;;;;;1.40;0.67;;;21.60;89.80;;;;;;4913869;29;20488;-76
2022/05/24 14:06:56;;;;;;;4.77;0.60;;;21.20;88.80;;;;;;4919190;29;20753;-77
2022/05/24 14:09:23;;;;;;;6.20;0.80;;;20.90;91.10;;;;;;4934797;29;20419;-77
2022/05/24 14:11:51;;;;;;;4.07;0.90;;;21.50;91.20;;;;;;4916305;29;20452;-76
2022/05/24 14:14:18;;;;;;;1.20;0.60;;;22.00;90.30;;;;;;4915759;29;20851;-76
2022/05/24 14:16:44;;;;;;;0.90;0.60;;;22.60;87.10;;;;;;4915661;29;20520;-76
2022/05/24 14:19:10;;;;;;;1.57;0.63;;;23.20;84.10;;;;;;4915271;29;20560;-76
2022/05/24 14:21:40;;;;;;;1.20;0.60;;;23.50;83.90;;;;;;4915580;29;20208;-76
2022/05/24 14:24:12;;;;;;;2.07;0.60;;;23.70;81.30;;;;;;4915453;29;20184;-76
2022/05/24 14:26:47;;;;;;;1.30;0.60;;;23.40;80.00;;;;;;4914924;29;20764;-77
2022/05/24 14:29:14;;;;;;;2.50;0.60;;;23.50;82.20;;;;;;4914934;29;20437;-76
2022/05/24 14:31:41;;;;;;;3.03;0.60;;;23.50;82.80;;;;;;4916032;29;20522;-77
2022/05/24 14:34:10;;;;;;;1.43;0.80;;;23.60;82.80;;;;;;4920679;29;20423;-77
2022/05/24 14:36:36;;;;;;;3.20;0.67;;;23.70;81.60;;;;;;4914930;29;20431;-78
2022/05/24 14:39:02;;;;;;;0.93;0.63;;;23.50;83.90;;;;;;4916394;29;20459;-76
2022/05/24 14:41:29;;;;;;;1.43;0.70;;;23.20;84.20;;;;;;4917153;29;20247;-78
2022/05/24 14:44:00;;;;;;;4.00;0.60;;;22.80;86.30;;;;;;4914735;29;20447;-77
2022/05/24 14:46:27;;;;;;;0.90;0.60;;;22.30;86.80;;;;;;4914961;29;20471;-76
2022/05/24 14:48:54;;;;;;;1.10;0.70;;;21.60;89.60;;;;;;4913458;29;20464;-76
2022/05/24 14:51:30;;;;;;;1.90;0.70;;;21.00;92.30;;;;;;4913943;29;20514;-76
2022/05/24 14:53:58;;;;;;;0.83;0.60;;;21.00;95.10;;;;;;4914529;29;20443;-77
2022/05/24 14:56:24;;;;;;;0.90;0.50;;;21.50;94.40;;;;;;4915245;29;20436;-76
2022/05/24 14:58:49;;;;;;;4.80;0.70;;;22.40;94.60;;;;;;4915452;29;20546;-76
2022/05/24 15:01:15;;;;;;;1.50;0.70;;;23.20;94.70;;;;;;4914825;29;20207;-77
2022/05/24 15:03:40;;;;;;;1.50;0.70;;;23.70;87.40;;;;;;4918004;29;20668;-76
2022/05/24 15:06:06;;;;;;;10.73;0.83;;;24.10;87.10;;;;;;4913799;29;20172;-76
2022/05/24 15:16:49;;;;;;;1.13;0.60;;;21.90;91.50;;;;;;4896863;29;20407;-76
2022/05/24 15:19:18;;;;;;;1.70;0.70;;;21.80;90.90;;;;;;4909542;29;20475;-76
2022/05/24 15:21:47;;;;;;;2.47;0.80;;;21.40;92.40;;;;;;4915346;29;20491;-77
2022/05/24 15:24:17;;;;;;;2.80;0.70;;;20.90;91.70;;;;;;4916101;29;20428;-76
2022/05/24 15:26:47;;;;;;;0.90;0.60;;;20.50;92.60;;;;;;4918838;29;20401;-77
2022/05/24 15:29:13;;;;;;;2.00;0.63;;;20.80;92.50;;;;;;4918397;29;20786;-77
2022/05/24 15:31:42;;;;;;;1.77;1.37;;;21.10;92.00;;;;;;4918191;29;20515;-75
2022/05/24 15:34:07;;;;;;;3.33;0.70;;;21.50;91.20;;;;;;4929352;29;20187;-77
2022/05/24 15:36:33;;;;;;;4.10;0.80;;;21.40;90.80;;;;;;4929603;29;20424;-77
2022/05/24 15:38:59;;;;;;;3.03;0.70;;;21.70;90.90;;;;;;4918479;29;20236;-74
2022/05/24 15:41:25;;;;;;;9.10;0.70;;;22.20;86.80;;;;;;4923825;29;20204;-75
2022/05/24 15:43:51;;;;;;;5.70;0.70;;;22.40;87.00;;;;;;4926028;29;20420;-76
2022/05/24 15:46:17;;;;;;;2.17;0.67;;;22.80;85.60;;;;;;4908272;29;20422;-76
2022/05/24 15:48:43;;;;;;;0.90;0.60;;;22.80;84.20;;;;;;4919796;29;20256;-76
2022/05/24 15:51:09;;;;;;;1.63;0.60;;;22.60;83.00;;;;;;4918987;29;20451;-77
2022/05/24 15:53:36;;;;;;;4.80;1.10;;;22.80;86.10;;;;;;4916693;29;20416;-76
2022/05/24 15:56:04;;;;;;;2.53;0.70;;;23.40;83.10;;;;;;4929830;29;20835;-77
2022/05/24 15:58:29;;;;;;;2.00;0.80;;;23.70;84.20;;;;;;4918276;29;20423;-76
2022/05/24 16:00:55;;;;;;;6.73;0.70;;;23.00;81.00;;;;;;4919279;29;20476;-78
2022/05/24 16:03:20;;;;;;;1.43;0.60;;;22.50;85.00;;;;;;4918621;29;20191;-76
2022/05/24 16:11:22;;;;;;;0.80;0.50;;;21.80;84.80;;;;;;4917690;29;20443;-76
2022/05/24 16:13:50;;;;;;;2.00;0.70;;;21.60;85.50;;;;;;4917608;29;20416;-75
2022/05/24 16:16:17;;;;;;;4.70;0.70;;;21.60;83.90;;;;;;4917661;29;20416;-76
2022/05/24 16:18:43;;;;;;;1.43;0.67;;;21.90;85.80;;;;;;4916895;29;20416;-77
2022/05/24 16:21:09;;;;;;;0.97;0.67;;;22.10;85.80;;;;;;4917619;29;20444;-76
2022/05/24 16:23:35;;;;;;;1.73;1.00;;;22.10;85.10;;;;;;4917532;29;20535;-76
2022/05/24 16:26:01;;;;;;;1.77;0.60;;;22.00;84.60;;;;;;4917586;29;20882;-79
2022/05/24 16:28:27;;;;;;;1.33;0.70;;;21.70;85.60;;;;;;4916846;29;20177;-77
2022/05/24 16:30:53;;;;;;;3.50;0.67;;;21.90;85.70;;;;;;4917430;29;20500;-78
2022/05/24 16:33:20;;;;;;;0.90;0.60;;;22.00;85.70;;;;;;4917481;29;20191;-77
2022/05/24 16:35:46;;;;;;;1.93;0.70;;;22.10;86.10;;;;;;4917019;29;20428;-76
2022/05/24 16:38:12;;;;;;;4.30;0.80;;;22.00;89.80;;;;;;4916934;29;20916;-75
2022/05/24 16:40:37;;;;;;;1.57;0.60;;;21.60;93.30;;;;;;4921429;29;20482;-75
2022/05/24 16:43:03;;;;;;;2.80;0.70;;;21.20;93.80;;;;;;4921629;29;20268;-78
2022/05/24 16:45:28;;;;;;;1.30;0.70;;;20.60;95.40;;;;;;4917023;29;20259;-76
2022/05/24 16:47:54;;;;;;;4.10;0.60;;;20.50;95.80;;;;;;4916463;29;20179;-75
2022/05/24 16:50:21;;;;;;;4.20;0.60;;;20.30;96.30;;;;;;4917071;29;20178;-76
2022/05/24 16:52:46;;;;;;;3.07;0.70;;;20.30;95.90;;;;;;4917206;29;20412;-75
2022/05/24 17:00:40;;;;;;;0.90;0.63;;;20.10;96.30;;;;;;4918242;29;20463;-75
2022/05/24 17:03:06;;;;;;;1.10;0.80;;;19.90;96.30;;;;;;4919687;29;20440;-78
2022/05/24 17:05:34;;;;;;;0.90;0.60;;;19.70;96.30;;;;;;4924911;29;20183;-75
2022/05/24 17:08:01;;;;;;;2.20;0.70;;;19.60;96.30;;;;;;4916500;29;20184;-74
2022/05/24 17:10:28;;;;;;;1.43;0.70;;;19.60;96.30;;;;;;4919507;29;20421;-76
2022/05/24 17:12:53;;;;;;;2.37;0.70;;;19.40;96.30;;;;;;4916240;29;20507;-75
2022/05/24 17:15:22;;;;;;;1.50;0.70;;;18.90;96.30;;;;;;4924772;29;20511;-76
2022/05/24 17:17:48;;;;;;;3.43;0.90;;;18.50;96.30;;;;;;4935292;29;20207;-76
2022/05/24 17:20:16;;;;;;;1.10;0.63;;;18.30;96.30;;;;;;4934728;29;20534;-76
2022/05/24 17:22:42;;;;;;;2.50;0.80;;;18.00;96.30;;;;;;4935786;29;20415;-76
2022/05/24 17:25:09;;;;;;;1.50;0.80;;;17.90;96.30;;;;;;4935854;29;20503;-76
2022/05/24 17:27:35;;;;;;;1.20;0.70;;;17.90;96.30;;;;;;4935113;29;20415;-76
2022/05/24 17:30:02;;;;;;;1.10;0.70;;;17.80;96.30;;;;;;4935992;29;20423;-78
2022/05/24 17:32:49;;;;;;;2.00;0.67;;;17.70;96.30;;;;;;4935820;29;20572;-76
2022/05/24 17:35:15;;;;;;;1.73;0.60;;;17.50;96.30;;;;;;4935478;29;20450;-78
2022/05/24 17:37:41;;;;;;;1.30;0.80;;;17.30;96.30;;;;;;4935054;29;20473;-78
2022/05/24 17:40:08;;;;;;;1.47;0.70;;;17.10;96.30;;;;;;4935482;29;20946;-75
2022/05/24 17:42:37;;;;;;;1.40;0.70;;;16.90;96.30;;;;;;4935522;29;20195;-75
2022/05/24 17:45:04;;;;;;;4.60;0.90;;;16.70;96.30;;;;;;4935510;29;20455;-75
2022/05/24 17:47:29;;;;;;;1.83;0.60;;;16.50;96.30;;;;;;4934017;29;20419;-77
2022/05/24 17:49:57;;;;;;;1.87;0.80;;;16.40;96.30;;;;;;4935526;29;20931;-75
2022/05/24 17:52:22;;;;;;;0.90;0.70;;;16.20;96.30;;;;;;4935414;29;20634;-76
2022/05/24 17:54:49;;;;;;;1.47;0.87;;;16.20;96.30;;;;;;4932701;29;20458;-77
2022/05/24 17:57:15;;;;;;;0.90;0.60;;;16.10;96.30;;;;;;4915459;29;20301;-76
2022/05/24 17:59:41;;;;;;;1.43;0.70;;;16.00;96.30;;;;;;4915738;29;20459;-77
2022/05/24 18:02:07;;;;;;;1.33;0.70;;;15.80;96.30;;;;;;4933450;29;20456;-77
2022/05/24 18:04:32;;;;;;;1.20;0.63;;;15.80;96.30;;;;;;4934977;29;20172;-76
2022/05/24 18:06:58;;;;;;;3.07;0.80;;;15.90;96.30;;;;;;4925841;29;20176;-76
2022/05/24 18:09:23;;;;;;;1.67;0.70;;;16.00;96.30;;;;;;4915521;29;20184;-75
2022/05/24 18:11:49;;;;;;;4.60;0.70;;;16.10;96.30;;;;;;4929489;29;20210;-75
2022/05/24 18:14:14;;;;;;;1.20;0.70;;;16.10;96.30;;;;;;4916019;29;20196;-76